Time;durP1;ratioP1;P1;durP2;ratioP2;P2;SDS_P1;SDS_P2;PMS_P1;PMS_P2;Temp;Humidity;BMP_temperature;BMP_pressure;BME280_temperature;BME280_humidity;BME280_pressure;Samples;Min_cycle;Max_cycle;Signal;HPM_P1;HPM_P2
2022/05/08 00:00:06;;;;;;;6.10;1.83;;;;;;;11.49;66.36;94944.97;5071725;28;20202;-61
2022/05/08 00:02:34;;;;;;;6.37;2.17;;;;;;;11.64;65.28;94961.50;5078751;22;20229;-62
2022/05/08 00:04:59;;;;;;;6.10;2.10;;;;;;;11.63;65.58;94957.38;5071680;28;20255;-61
2022/05/08 00:07:25;;;;;;;4.97;2.37;;;;;;;11.47;65.49;94957.00;5071984;28;20251;-62
2022/05/08 00:09:50;;;;;;;6.87;2.17;;;;;;;11.46;65.32;94952.88;5071782;28;20184;-63
2022/05/08 00:12:17;;;;;;;4.13;2.10;;;;;;;11.30;66.13;94939.81;5072014;28;20204;-62
2022/05/08 00:14:43;;;;;;;3.97;1.93;;;;;;;11.09;66.79;94939.00;5071845;28;20204;-61
2022/05/08 00:17:11;;;;;;;8.07;3.20;;;;;;;11.13;66.86;94937.81;5072830;28;20212;-61
2022/05/08 00:19:41;;;;;;;7.33;2.23;;;;;;;11.32;65.40;94945.56;5075650;28;20220;-60
2022/05/08 00:22:06;;;;;;;7.10;2.43;;;;;;;11.48;65.21;94953.53;5075881;28;20221;-61
2022/05/08 00:24:33;;;;;;;2.93;1.90;;;;;;;11.50;65.07;94956.75;5075732;28;20336;-62
2022/05/08 00:26:59;;;;;;;9.03;2.10;;;;;;;11.29;65.13;94956.00;5075542;28;20229;-60
2022/05/08 00:29:24;;;;;;;3.50;1.83;;;;;;;11.13;66.42;94942.91;5057619;28;20678;-63
2022/05/08 00:31:49;;;;;;;4.50;2.03;;;;;;;11.15;66.56;94947.91;5057321;28;20201;-60
2022/05/08 00:34:15;;;;;;;4.27;1.97;;;;;;;11.36;65.74;94956.28;5075111;28;20200;-61
2022/05/08 00:36:41;;;;;;;6.00;2.77;;;;;;;11.31;65.30;94964.31;5075033;28;20292;-61
2022/05/08 00:39:06;;;;;;;6.50;2.27;;;;;;;11.49;65.20;94960.22;5075071;28;20188;-62
2022/05/08 00:41:32;;;;;;;6.10;2.20;;;;;;;11.30;66.20;94955.06;5073951;28;20185;-62
2022/05/08 00:43:57;;;;;;;5.20;1.83;;;;;;;11.22;65.52;94957.44;5075122;28;20181;-61
2022/05/08 00:46:23;;;;;;;3.30;2.00;;;;;;;11.10;65.72;94958.44;5075312;28;20241;-60
2022/05/08 00:48:48;;;;;;;4.07;2.07;;;;;;;11.01;66.96;94941.38;5056981;28;20180;-59
2022/05/08 00:51:16;;;;;;;3.33;1.90;;;;;;;10.97;66.49;94951.00;5075195;28;20197;-63
2022/05/08 00:53:51;;;;;;;2.93;2.33;;;;;;;10.90;67.30;94933.84;5074684;28;20581;-59
2022/05/08 00:56:18;;;;;;;4.90;2.83;;;;;;;10.82;67.14;94938.75;5075016;28;20582;-62
2022/05/08 00:58:47;;;;;;;3.37;1.93;;;;;;;10.86;67.50;94935.81;5074736;28;20180;-60
2022/05/08 01:01:13;;;;;;;5.73;2.13;;;;;;;10.61;67.56;94932.81;5056871;28;20185;-59
2022/05/08 01:03:40;;;;;;;6.03;2.17;;;;;;;10.80;67.38;94936.31;5057029;28;20199;-62
2022/05/08 01:06:08;;;;;;;3.83;2.10;;;;;;;10.88;67.01;94940.78;5074771;28;20543;-61
2022/05/08 01:08:35;;;;;;;3.07;2.20;;;;;;;10.80;67.00;94935.50;5074530;28;20189;-62
2022/05/08 01:11:05;;;;;;;3.50;2.10;;;;;;;10.78;66.62;94940.72;5074265;28;20590;-62
2022/05/08 01:13:31;;;;;;;6.83;1.93;;;;;;;10.56;68.36;94914.59;5056436;28;20217;-61
2022/05/08 01:15:57;;;;;;;4.67;2.10;;;;;;;10.70;67.24;94929.56;5074358;28;20181;-60
2022/05/08 01:18:22;;;;;;;6.57;1.77;;;;;;;10.78;67.09;94940.72;5074386;28;20669;-60
2022/05/08 01:20:48;;;;;;;3.13;2.33;;;;;;;10.84;66.61;94937.69;5074173;28;20228;-64
2022/05/08 01:23:15;;;;;;;3.50;1.80;;;;;;;10.70;67.54;94929.56;5081410;22;20248;-60
2022/05/08 01:25:50;;;;;;;3.90;2.10;;;;;;;10.49;68.82;94921.09;5074681;28;20185;-59
2022/05/08 01:28:16;;;;;;;5.70;2.53;;;;;;;10.58;68.98;94923.72;5073408;28;20212;-61
2022/05/08 01:30:43;;;;;;;5.40;2.17;;;;;;;10.62;69.24;94922.56;5074099;28;20203;-61
2022/05/08 01:33:09;;;;;;;3.27;2.30;;;;;;;10.37;71.32;94911.91;5073967;28;20219;-58
2022/05/08 01:35:35;;;;;;;9.63;2.63;;;;;;;10.63;70.33;94934.31;5074001;28;20541;-60
2022/05/08 01:38:01;;;;;;;2.80;2.17;;;;;;;10.60;70.44;94926.97;5074416;28;20223;-62
2022/05/08 01:40:27;;;;;;;5.00;2.27;;;;;;;10.74;69.10;94936.00;5074113;28;20215;-60
2022/05/08 01:42:53;;;;;;;5.20;2.27;;;;;;;10.91;69.64;94935.44;5074420;28;20576;-60
2022/05/08 01:45:18;;;;;;;5.47;2.10;;;;;;;10.77;70.16;94928.13;5073912;28;20173;-61
2022/05/08 01:50:28;;;;;;;6.27;2.67;;;;;;;10.45;70.41;94914.66;5073916;28;20215;-60
2022/05/08 01:52:53;;;;;;;4.17;2.60;;;;;;;10.50;70.00;94927.81;5055867;28;20208;-60
2022/05/08 01:55:19;;;;;;;3.53;2.17;;;;;;;10.52;69.33;94928.50;5073703;28;20727;-59
2022/05/08 01:57:44;;;;;;;4.70;2.17;;;;;;;10.38;68.54;94956.75;5056236;28;20580;-65
2022/05/08 02:00:10;;;;;;;4.03;2.37;;;;;;;10.20;69.88;94910.69;5073516;28;20173;-64
2022/05/08 02:02:37;;;;;;;5.20;2.60;;;;;;;10.08;70.75;94909.91;5073851;28;20291;-60
2022/05/08 02:05:04;;;;;;;3.90;2.47;;;;;;;9.84;70.69;94908.47;5055427;28;20184;-61
2022/05/08 02:07:29;;;;;;;8.13;2.40;;;;;;;9.90;68.46;94944.38;5073629;28;20232;-60
2022/05/08 02:09:58;;;;;;;6.73;2.30;;;;;;;9.85;69.68;94920.25;5073276;28;20678;-62
2022/05/08 02:12:23;;;;;;;4.37;1.87;;;;;;;9.79;69.46;94925.81;5073698;28;20205;-63
2022/05/08 02:14:48;;;;;;;3.40;2.10;;;;;;;9.63;69.48;94922.84;5073108;28;20211;-62
2022/05/08 02:17:14;;;;;;;3.67;2.23;;;;;;;9.47;70.09;94915.59;5073262;28;20249;-62
2022/05/08 02:19:39;;;;;;;4.23;2.37;;;;;;;9.41;70.27;94926.22;5072738;28;20178;-63
2022/05/08 02:22:06;;;;;;;5.27;2.13;;;;;;;9.45;70.29;94917.44;5073079;28;20221;-63
2022/05/08 02:24:31;;;;;;;6.87;2.67;;;;;;;9.50;69.95;94930.56;5055098;28;20185;-61
2022/05/08 02:26:56;;;;;;;6.10;2.80;;;;;;;9.39;70.30;94922.97;5073166;28;20201;-61
2022/05/08 02:29:22;;;;;;;5.93;2.40;;;;;;;9.52;69.82;94930.44;5072741;28;20232;-63
2022/05/08 02:31:47;;;;;;;4.37;2.57;;;;;;;9.45;68.34;94937.75;5072885;28;20211;-63
2022/05/08 02:34:13;;;;;;;4.13;2.23;;;;;;;9.62;68.21;94952.47;5072721;28;20693;-62
2022/05/08 02:36:39;;;;;;;6.63;2.40;;;;;;;9.55;66.35;94976.72;5072815;28;20201;-61
2022/05/08 02:39:04;;;;;;;4.10;2.30;;;;;;;9.49;67.00;94968.75;5072223;28;20697;-61
2022/05/08 02:41:29;;;;;;;4.93;2.70;;;;;;;9.52;67.22;94960.91;5072089;28;20191;-60
2022/05/08 02:43:55;;;;;;;4.87;2.27;;;;;;;9.67;64.97;94998.66;5072657;28;20183;-61
2022/05/08 02:46:20;;;;;;;3.63;2.30;;;;;;;9.75;65.16;94983.63;5072277;28;20264;-61
2022/05/08 02:48:46;;;;;;;4.47;2.60;;;;;;;9.66;65.60;94981.78;5054560;28;20188;-62
2022/05/08 02:51:11;;;;;;;4.30;2.73;;;;;;;9.66;65.97;94970.81;5072464;28;20268;-61
2022/05/08 02:53:37;;;;;;;4.17;2.20;;;;;;;9.71;65.34;94978.91;5079548;22;20307;-64
2022/05/08 02:58:46;;;;;;;4.77;2.43;;;;;;;9.64;65.92;94970.94;5052342;28;20165;-64
2022/05/08 03:01:12;;;;;;;3.80;2.10;;;;;;;9.62;66.21;94977.06;5052340;28;20189;-60
2022/05/08 03:03:38;;;;;;;3.60;2.60;;;;;;;9.53;66.39;94960.81;5051895;28;20571;-60
2022/05/08 03:06:05;;;;;;;5.80;2.57;;;;;;;9.62;65.82;94985.47;5052278;28;20201;-65
2022/05/08 03:08:31;;;;;;;4.93;2.33;;;;;;;9.68;65.06;95005.31;5052089;28;20233;-63
2022/05/08 03:13:53;;;;;;;10.73;2.60;;;;;;;9.96;63.63;95024.34;5030514;28;20221;-61
2022/05/08 03:16:19;;;;;;;4.10;2.23;;;;;;;9.85;63.73;95004.88;5051668;28;20193;-62
2022/05/08 03:18:45;;;;;;;5.87;2.80;;;;;;;10.01;62.37;95040.03;5051673;28;20186;-61
2022/05/08 03:21:12;;;;;;;3.87;2.03;;;;;;;10.16;61.55;95059.22;5051803;28;20383;-61
2022/05/08 03:23:42;;;;;;;4.90;2.70;;;;;;;9.93;62.87;95019.50;5051729;28;20262;-61
2022/05/08 03:26:08;;;;;;;4.80;2.30;;;;;;;9.86;62.79;95024.25;5051751;28;20643;-60
2022/05/08 03:28:36;;;;;;;5.17;2.90;;;;;;;9.82;64.41;95005.09;5051580;28;20201;-64
2022/05/08 03:31:02;;;;;;;3.90;2.47;;;;;;;9.96;64.70;94997.22;5051500;28;20670;-63
2022/05/08 03:33:28;;;;;;;9.63;2.50;;;;;;;9.93;65.22;94982.22;5051547;28;20508;-60
2022/05/08 03:35:55;;;;;;;6.77;2.80;;;;;;;9.89;65.46;94990.19;5051521;28;20535;-61
2022/05/08 03:38:27;;;;;;;5.67;2.43;;;;;;;10.05;63.59;95027.00;5051628;28;20193;-61
2022/05/08 03:40:54;;;;;;;4.63;2.47;;;;;;;10.03;63.49;95016.16;5033493;28;20266;-61
2022/05/08 03:43:21;;;;;;;5.80;2.50;;;;;;;10.01;62.56;95035.78;5051418;28;20201;-62
2022/05/08 03:45:49;;;;;;;4.03;2.30;;;;;;;9.99;63.87;95008.88;5051309;28;20177;-64
2022/05/08 03:48:15;;;;;;;5.57;2.50;;;;;;;10.01;63.87;95024.81;5051155;28;20240;-62
2022/05/08 03:50:41;;;;;;;3.40;2.60;;;;;;;9.95;64.43;95008.31;5051544;28;20170;-64
2022/05/08 03:53:06;;;;;;;5.47;2.37;;;;;;;9.96;64.97;94984.53;5051938;28;20205;-61
2022/05/08 03:55:32;;;;;;;4.43;2.80;;;;;;;10.03;64.46;95011.06;5051669;28;20618;-59
2022/05/08 03:57:57;;;;;;;5.40;3.87;;;;;;;10.01;62.79;95040.03;5052074;28;20208;-63
2022/05/08 04:00:23;;;;;;;6.97;2.90;;;;;;;9.98;64.44;95005.53;5051604;28;20282;-62
2022/05/08 04:02:48;;;;;;;3.97;2.43;;;;;;;10.10;63.98;95014.78;5051423;28;20215;-63
2022/05/08 04:05:15;;;;;;;10.50;3.13;;;;;;;10.04;63.43;95022.84;5051469;28;20651;-63
2022/05/08 04:07:40;;;;;;;5.37;3.40;;;;;;;10.00;64.03;95018.09;5033563;28;20206;-61
2022/05/08 04:10:07;;;;;;;4.10;2.80;;;;;;;10.01;63.89;95028.16;5051456;28;20177;-59
2022/05/08 04:12:33;;;;;;;6.43;2.90;;;;;;;10.00;64.16;95013.84;5051748;28;20292;-62
2022/05/08 04:14:59;;;;;;;6.63;2.90;;;;;;;10.31;63.96;95019.13;5033498;28;20280;-63
2022/05/08 04:17:28;;;;;;;7.33;2.97;;;;;;;10.31;63.63;95019.13;5051664;28;20766;-61
2022/05/08 04:19:55;;;;;;;5.50;2.97;;;;;;;10.16;64.88;94995.69;5051302;28;20177;-59
2022/05/08 04:25:07;;;;;;;7.43;2.83;;;;;;;10.38;65.89;94998.22;5051762;28;20216;-60
2022/05/08 04:27:35;;;;;;;4.53;2.83;;;;;;;10.64;63.93;95034.28;5051789;28;20209;-62
2022/05/08 04:30:02;;;;;;;5.30;2.43;;;;;;;10.70;63.28;95043.97;5051534;28;20260;-62
2022/05/08 04:32:27;;;;;;;10.83;3.37;;;;;;;10.61;64.19;95024.34;5051743;28;20214;-59
2022/05/08 04:34:53;;;;;;;7.07;3.07;;;;;;;10.62;64.17;95023.44;5051368;28;20619;-62
2022/05/08 04:37:18;;;;;;;3.43;2.67;;;;;;;10.60;63.78;95030.38;5051563;28;20733;-62
2022/05/08 04:39:43;;;;;;;4.63;2.57;;;;;;;10.79;63.27;95046.59;5051145;28;20178;-60
2022/05/08 04:42:16;;;;;;;4.67;2.43;;;;;;;10.74;63.41;95045.34;5051550;28;20335;-60
2022/05/08 04:44:41;;;;;;;5.30;2.47;;;;;;;10.86;62.24;95057.91;5051251;28;20565;-60
2022/05/08 04:47:06;;;;;;;6.87;3.03;;;;;;;11.06;60.74;95091.09;5051318;28;20213;-64
2022/05/08 04:49:32;;;;;;;7.80;3.07;;;;;;;11.06;60.61;95083.47;5033246;28;20235;-59
2022/05/08 04:51:57;;;;;;;7.83;3.10;;;;;;;11.13;61.15;95080.31;5033161;28;20687;-61
2022/05/08 04:54:24;;;;;;;6.57;4.00;;;;;;;10.95;60.47;95086.88;5050744;28;20756;-61
2022/05/08 04:56:49;;;;;;;6.17;3.70;;;;;;;10.73;60.06;95087.75;5051246;28;20209;-64
2022/05/08 04:59:15;;;;;;;7.03;3.87;;;;;;;10.34;61.82;95054.47;5050934;28;20177;-63
2022/05/08 05:01:41;;;;;;;8.23;4.13;;;;;;;10.63;62.04;95050.44;5051068;28;20202;-60
2022/05/08 05:04:07;;;;;;;5.20;3.80;;;;;;;10.90;61.62;95069.44;5053053;28;20272;-62
2022/05/08 05:06:32;;;;;;;5.67;3.50;;;;;;;11.05;61.10;95086.97;5053243;28;20621;-60
2022/05/08 05:08:58;;;;;;;5.80;3.57;;;;;;;11.01;63.15;95043.13;5053281;28;20181;-61
2022/05/08 05:11:23;;;;;;;6.47;2.70;;;;;;;11.13;61.43;95077.78;5054620;28;20213;-61
2022/05/08 05:13:48;;;;;;;5.07;3.50;;;;;;;11.32;60.86;95095.75;5054185;28;20201;-60
2022/05/08 05:16:14;;;;;;;10.07;3.00;;;;;;;11.24;61.14;95090.47;5054575;28;20186;-63
2022/05/08 05:18:39;;;;;;;5.87;3.83;;;;;;;11.39;61.58;95080.78;5054661;28;20170;-63
2022/05/08 05:21:05;;;;;;;7.20;3.30;;;;;;;11.48;60.90;95091.03;5054476;28;20209;-58
2022/05/08 05:23:34;;;;;;;8.57;3.33;;;;;;;11.37;59.92;95111.44;5054308;28;20221;-59
2022/05/08 05:25:59;;;;;;;13.90;3.23;;;;;;;11.30;60.52;95099.31;5054427;28;20174;-58
2022/05/08 05:28:25;;;;;;;6.70;3.63;;;;;;;11.35;61.03;95085.28;5054031;28;20229;-58
2022/05/08 05:30:50;;;;;;;7.37;3.13;;;;;;;11.49;60.66;95086.75;5054082;28;20182;-61
2022/05/08 05:33:16;;;;;;;5.77;2.83;;;;;;;11.37;61.99;95065.63;5054041;28;20267;-60
2022/05/08 05:35:42;;;;;;;7.97;3.13;;;;;;;11.51;59.76;95106.03;5054188;28;20174;-61
2022/05/08 05:38:08;;;;;;;7.67;3.43;;;;;;;11.44;60.70;95087.09;5054194;28;20259;-62
2022/05/08 05:40:34;;;;;;;5.30;3.43;;;;;;;11.50;62.10;95058.59;5052742;28;20634;-60
2022/05/08 05:42:59;;;;;;;6.77;3.33;;;;;;;11.38;63.90;95021.41;5054283;28;20202;-58
2022/05/08 05:45:25;;;;;;;11.67;3.67;;;;;;;11.34;63.23;95042.97;5053806;28;20687;-59
2022/05/08 05:47:52;;;;;;;6.43;3.40;;;;;;;11.56;61.65;95075.94;5052430;28;20238;-62
2022/05/08 05:50:22;;;;;;;8.13;3.07;;;;;;;11.62;62.20;95062.69;5053674;28;20178;-60
2022/05/08 05:52:49;;;;;;;7.67;3.00;;;;;;;11.75;60.45;95088.81;5054169;28;20232;-60
2022/05/08 05:55:15;;;;;;;4.70;3.00;;;;;;;11.81;60.68;95090.03;5053499;28;20289;-62
2022/05/08 05:57:41;;;;;;;6.43;3.33;;;;;;;11.72;61.15;95085.69;5054045;28;20701;-60
2022/05/08 06:00:12;;;;;;;6.03;2.63;;;;;;;11.97;61.33;95079.38;5053634;28;20231;-62
2022/05/08 06:02:40;;;;;;;4.77;2.87;;;;;;;11.99;58.88;95120.81;5053892;28;20200;-61
2022/05/08 06:05:06;;;;;;;7.20;3.03;;;;;;;12.01;59.78;95101.13;5053403;28;20189;-63
2022/05/08 06:07:39;;;;;;;5.40;2.93;;;;;;;12.20;59.41;95116.50;5035908;28;20710;-63
2022/05/08 06:10:07;;;;;;;4.83;2.97;;;;;;;12.25;57.78;95140.66;5053566;28;20327;-60
2022/05/08 06:12:32;;;;;;;3.93;2.53;;;;;;;12.14;58.19;95129.75;5053719;28;20655;-59
2022/05/08 06:14:58;;;;;;;4.93;2.33;;;;;;;12.15;58.79;95106.69;5053311;28;20207;-59
2022/05/08 06:17:24;;;;;;;4.13;2.83;;;;;;;12.12;59.74;95084.00;5053757;28;20205;-61
2022/05/08 06:19:50;;;;;;;7.70;2.70;;;;;;;12.33;58.25;95105.16;5053115;28;20178;-60
2022/05/08 06:22:15;;;;;;;4.63;3.00;;;;;;;12.35;57.47;95133.88;5053496;28;20233;-60
2022/05/08 06:24:40;;;;;;;4.60;2.40;;;;;;;12.39;55.24;95181.13;5035152;28;20192;-61
2022/05/08 06:27:06;;;;;;;4.90;2.63;;;;;;;12.33;55.63;95160.41;5053258;28;20197;-60
2022/05/08 06:29:33;;;;;;;4.43;2.93;;;;;;;12.07;57.54;95116.72;5052958;28;20188;-60
2022/05/08 06:31:59;;;;;;;6.03;2.70;;;;;;;12.26;57.22;95123.63;5053024;28;20205;-63
2022/05/08 06:34:24;;;;;;;5.87;2.47;;;;;;;12.56;56.51;95141.47;5052869;28;20204;-60
2022/05/08 06:36:49;;;;;;;4.07;2.80;;;;;;;12.73;54.35;95193.56;5053008;28;20296;-62
2022/05/08 06:39:15;;;;;;;4.73;2.80;;;;;;;12.74;55.94;95134.78;5052985;28;20189;-63
2022/05/08 06:41:41;;;;;;;4.90;2.80;;;;;;;12.81;54.63;95173.31;5052528;28;20675;-62
2022/05/08 06:44:07;;;;;;;6.63;3.20;;;;;;;12.71;54.23;95175.84;5052859;28;20173;-62
2022/05/08 06:46:35;;;;;;;4.33;2.83;;;;;;;12.62;55.16;95146.81;5052780;28;20193;-60
2022/05/08 06:49:02;;;;;;;3.50;2.70;;;;;;;12.69;53.26;95193.03;5052576;28;20228;-59
2022/05/08 06:51:28;;;;;;;5.63;2.70;;;;;;;13.12;51.78;95185.94;5061320;22;20247;-61
2022/05/08 06:53:54;;;;;;;5.70;2.90;;;;;;;13.26;50.65;95197.50;5071346;28;20234;-62
2022/05/08 06:56:19;;;;;;;5.40;3.40;;;;;;;13.36;50.25;95177.88;5072419;28;20642;-62
2022/05/08 07:01:34;;;;;;;4.20;2.63;;;;;;;13.46;52.24;95123.31;5072851;28;20196;-63
2022/05/08 07:04:04;;;;;;;3.73;2.70;;;;;;;13.73;52.02;95139.69;5072675;28;20169;-61
2022/05/08 07:06:30;;;;;;;3.63;2.43;;;;;;;13.71;50.78;95162.03;5072504;28;20596;-64
2022/05/08 07:08:56;;;;;;;5.07;2.83;;;;;;;13.32;49.77;95172.25;5072230;28;20260;-62
2022/05/08 07:11:21;;;;;;;4.70;2.50;;;;;;;13.37;49.97;95154.75;5072197;28;20212;-62
2022/05/08 07:13:47;;;;;;;5.82;3.40;;;;;;;13.79;50.47;95164.69;5072199;28;20207;-62
2022/05/08 07:16:13;;;;;;;7.63;2.90;;;;;;;14.11;50.03;95149.84;5072371;28;20268;-64
2022/05/08 07:18:41;;;;;;;7.60;3.28;;;;;;;14.36;49.90;95156.94;5072004;28;20635;-66
2022/05/08 07:21:07;;;;;;;4.43;2.93;;;;;;;14.61;49.54;95155.44;5054044;28;20193;-62
2022/05/08 07:23:32;;;;;;;4.38;3.05;;;;;;;14.88;48.84;95161.41;5071882;28;20203;-60
2022/05/08 07:25:58;;;;;;;7.07;3.22;;;;;;;14.96;48.96;95166.59;5053865;28;20192;-59
2022/05/08 07:28:24;;;;;;;7.63;3.28;;;;;;;14.74;47.70;95174.66;5072016;28;20197;-62
2022/05/08 07:30:50;;;;;;;10.48;4.05;;;;;;;14.61;48.40;95148.59;5071680;28;20564;-59
2022/05/08 07:33:16;;;;;;;5.38;3.22;;;;;;;14.55;49.39;95130.44;5071584;28;20189;-63
2022/05/08 07:38:27;;;;;;;7.78;3.58;;;;;;;15.64;48.35;95157.50;5071987;28;20589;-63
2022/05/08 07:40:53;;;;;;;5.32;3.00;;;;;;;15.59;49.12;95126.41;5071694;28;20184;-64
2022/05/08 07:43:18;;;;;;;12.10;2.92;;;;;;;15.73;48.16;95137.88;5071629;28;20575;-64
2022/05/08 07:45:45;;;;;;;7.32;2.92;;;;;;;15.84;48.70;95124.78;5071797;28;20212;-61
2022/05/08 07:48:10;;;;;;;4.22;2.60;;;;;;;15.65;48.19;95130.94;5071433;28;20201;-62
2022/05/08 07:50:36;;;;;;;6.53;2.88;;;;;;;15.93;48.00;95136.72;5053504;28;20226;-61
2022/05/08 07:53:02;;;;;;;4.68;2.63;;;;;;;15.93;48.51;95121.34;5071826;28;20212;-63
2022/05/08 07:55:28;;;;;;;7.82;3.35;;;;;;;16.13;47.49;95134.75;5053552;28;20246;-62
2022/05/08 07:57:53;;;;;;;5.72;2.92;;;;;;;16.27;48.99;95114.47;5071815;28;20204;-62
2022/05/08 08:00:19;;;;;;;6.70;3.17;;;;;;;16.41;46.93;95154.16;5071444;28;20200;-62
2022/05/08 08:02:44;;;;;;;7.72;4.22;;;;;;;16.13;46.70;95145.03;5071748;28;20239;-62
2022/05/08 08:05:10;;;;;;;10.18;3.75;;;;;;;16.26;48.44;95105.16;5071397;28;20639;-62
2022/05/08 08:07:36;;;;;;;6.10;2.67;;;;;;;16.75;49.39;95088.22;5071661;28;20205;-62
2022/05/08 08:10:03;;;;;;;5.20;2.90;;;;;;;17.10;47.98;95121.38;5071796;28;20177;-61
2022/05/08 08:12:29;;;;;;;5.30;2.63;;;;;;;16.91;45.85;95154.25;5053858;28;20596;-61
2022/05/08 08:14:54;;;;;;;6.10;2.92;;;;;;;17.10;45.22;95156.53;5071417;28;20197;-63
2022/05/08 08:17:21;;;;;;;3.25;2.65;;;;;;;17.07;45.21;95144.03;5071499;28;20635;-62
2022/05/08 08:19:47;;;;;;;10.40;3.15;;;;;;;17.63;44.57;95159.56;5071210;28;20185;-64
2022/05/08 08:22:12;;;;;;;5.68;2.75;;;;;;;17.44;43.95;95162.38;5072103;28;20254;-64
2022/05/08 08:24:38;;;;;;;5.97;2.83;;;;;;;17.77;45.01;95127.25;5080021;22;20583;-64
2022/05/08 08:27:04;;;;;;;3.65;2.20;;;;;;;17.98;47.41;95097.47;5072361;28;20287;-64
2022/05/08 08:29:29;;;;;;;3.13;2.20;;;;;;;18.12;44.22;95162.91;5071264;28;20272;-61
2022/05/08 08:31:55;;;;;;;4.78;2.03;;;;;;;18.08;44.63;95133.31;5071396;28;20204;-61
2022/05/08 08:34:20;;;;;;;5.68;2.30;;;;;;;18.17;44.77;95130.56;5071209;28;20583;-62
2022/05/08 08:36:49;;;;;;;4.03;2.70;;;;;;;18.15;44.29;95140.22;5071041;28;20567;-60
2022/05/08 08:39:14;;;;;;;4.68;2.92;;;;;;;18.09;43.84;95143.44;5056258;28;20173;-61
2022/05/08 08:41:43;;;;;;;9.10;3.10;;;;;;;18.39;45.10;95105.88;5075011;28;20212;-59
2022/05/08 08:49:47;;;;;;;4.38;2.75;;;;;;;18.87;43.02;95143.53;5075154;28;20249;-60
2022/05/08 08:52:14;;;;;;;5.38;2.38;;;;;;;19.00;43.55;95131.75;5075216;28;20275;-64
2022/05/08 08:54:39;;;;;;;2.90;2.60;;;;;;;19.07;42.21;95147.31;5074654;28;20201;-63
2022/05/08 08:57:06;;;;;;;5.38;2.53;;;;;;;19.31;45.46;95084.50;5074637;28;20207;-64
2022/05/08 08:59:31;;;;;;;4.15;2.92;;;;;;;19.54;44.45;95104.16;5074635;28;20661;-63
2022/05/08 09:01:57;;;;;;;7.30;3.08;;;;;;;19.83;42.32;95142.97;5056807;28;20192;-61
2022/05/08 09:04:22;;;;;;;7.88;3.47;;;;;;;19.77;41.88;95146.25;5074733;28;20737;-63
2022/05/08 09:06:48;;;;;;;8.98;3.97;;;;;;;19.91;42.89;95122.25;5074261;28;20278;-62
2022/05/08 09:09:33;;;;;;;5.20;2.65;;;;;;;20.37;39.90;95181.53;5074605;28;20181;-64
2022/05/08 09:11:58;;;;;;;7.50;3.60;;;;;;;20.64;43.53;95098.25;5074570;28;20581;-63
2022/05/08 09:14:35;;;;;;;6.72;4.15;;;;;;;20.75;39.95;95162.41;5074389;28;20197;-64
2022/05/08 09:17:05;;;;;;;3.95;2.53;;;;;;;20.70;37.52;95200.91;5074441;28;20586;-62
2022/05/08 09:19:38;;;;;;;4.70;3.15;;;;;;;20.94;38.93;95161.84;5040033;28;20184;-63
2022/05/08 09:22:09;;;;;;;5.88;2.53;;;;;;;21.11;38.76;95159.91;5074427;28;20217;-62
2022/05/08 09:24:38;;;;;;;5.82;2.72;;;;;;;21.36;39.73;95136.09;5075024;28;20532;-65
2022/05/08 09:27:13;;;;;;;9.32;3.28;;;;;;;21.43;39.18;95151.69;5074223;28;20213;-64
2022/05/08 09:29:43;;;;;;;7.43;3.10;;;;;;;21.67;39.97;95123.66;5074180;28;20218;-65
2022/05/08 09:32:09;;;;;;;7.35;3.13;;;;;;;21.80;36.74;95187.69;5074043;28;20233;-65
2022/05/08 09:34:56;;;;;;;3.53;2.67;;;;;;;22.30;34.32;95215.25;5074112;28;20197;-62
2022/05/08 09:37:22;;;;;;;3.67;2.35;;;;;;;22.44;36.10;95149.59;5055708;28;20705;-62
2022/05/08 09:39:47;;;;;;;4.53;2.13;;;;;;;22.55;35.83;95139.47;5073721;28;20235;-62
2022/05/08 09:42:37;;;;;;;3.85;2.42;;;;;;;22.47;33.11;95115.50;5073853;28;20280;-62
2022/05/08 09:45:07;;;;;;;3.88;2.30;;;;;;;22.62;34.11;95077.34;5061918;28;20272;-64
2022/05/08 09:47:49;;;;;;;2.47;2.25;;;;;;;22.81;33.30;95092.16;5055991;28;20282;-63
2022/05/08 09:50:16;;;;;;;3.03;2.25;;;;;;;22.77;31.75;95095.31;5074121;28;20165;-62
2022/05/08 09:52:44;;;;;;;3.60;2.67;;;;;;;22.75;30.84;95107.69;5073889;28;20213;-62
2022/05/08 09:55:12;;;;;;;2.28;1.88;;;;;;;22.97;30.86;95109.16;5073560;28;20614;-62
2022/05/08 09:57:41;;;;;;;4.68;2.03;;;;;;;23.05;29.70;95127.16;5055477;28;20201;-59
2022/05/08 10:00:08;;;;;;;2.80;2.08;;;;;;;23.48;29.70;95112.94;5073502;28;20673;-63
2022/05/08 10:02:38;;;;;;;2.65;2.17;;;;;;;23.67;28.16;95139.91;5073513;28;20220;-64
2022/05/08 10:05:05;;;;;;;5.32;2.00;;;;;;;24.02;27.49;95136.13;5073673;28;20180;-64
2022/05/08 10:07:33;;;;;;;2.05;1.85;;;;;;;23.82;27.77;95120.53;5055615;28;20636;-62
2022/05/08 10:15:29;;;;;;;3.35;2.10;;;;;;;24.63;28.77;95084.66;5073135;28;20220;-64
2022/05/08 10:18:34;;;;;;;4.13;1.77;;;;;;;24.74;26.42;95134.31;5073483;28;20670;-65
2022/05/08 10:21:08;;;;;;;4.32;1.85;;;;;;;24.49;24.82;95143.72;5054548;28;20226;-65
2022/05/08 10:23:45;;;;;;;2.25;1.85;;;;;;;24.11;24.73;95134.97;5073380;28;20232;-61
2022/05/08 10:26:23;;;;;;;2.47;2.22;;;;;;;24.59;28.29;95052.28;5073000;28;20247;-62
2022/05/08 10:29:03;;;;;;;3.03;2.08;;;;;;;24.99;26.41;95085.75;5073555;28;20188;-63
2022/05/08 10:31:48;;;;;;;3.90;2.05;;;;;;;24.87;27.19;95060.59;5073284;28;20181;-64
2022/05/08 10:34:16;;;;;;;3.55;2.10;;;;;;;24.71;27.56;95051.44;5072853;28;20693;-65
2022/05/08 10:37:21;;;;;;;2.25;1.83;;;;;;;25.42;28.55;95028.66;5073361;28;20678;-66
2022/05/08 10:39:47;;;;;;;3.70;2.50;;;;;;;25.63;27.02;95056.16;5032507;28;20204;-66
2022/05/08 10:42:22;;;;;;;3.15;2.00;;;;;;;25.80;26.67;95067.63;5054964;28;20709;-65
2022/05/08 10:44:47;;;;;;;2.67;1.98;;;;;;;25.80;28.08;95031.97;5073450;28;20222;-65
2022/05/08 10:47:36;;;;;;;6.68;2.70;;;;;;;25.15;26.58;95057.66;5073204;28;20200;-65
2022/05/08 10:50:03;;;;;;;4.18;2.38;;;;;;;25.58;28.15;95022.13;5072493;28;20173;-64
2022/05/08 10:52:41;;;;;;;4.05;2.33;;;;;;;25.64;29.20;95003.84;5072646;28;20225;-63
2022/05/08 10:55:09;;;;;;;2.75;2.10;;;;;;;25.99;27.70;95022.38;5072447;28;20267;-62
2022/05/08 10:57:36;;;;;;;2.47;2.20;;;;;;;25.66;27.13;95030.47;5072764;28;20731;-62
2022/05/08 11:00:05;;;;;;;4.05;2.00;;;;;;;25.69;26.80;95032.63;5072419;28;20533;-59
2022/05/08 11:03:00;;;;;;;3.22;1.90;;;;;;;26.47;28.05;94997.19;5053925;28;20208;-63
2022/05/08 11:05:32;;;;;;;4.50;2.15;;;;;;;26.81;27.14;95024.50;5072565;28;20165;-64
2022/05/08 11:08:03;;;;;;;3.40;2.10;;;;;;;26.52;24.68;95062.53;5055187;28;20219;-65
2022/05/08 11:10:37;;;;;;;2.55;2.35;;;;;;;26.76;25.68;95047.06;5055477;28;20650;-64
2022/05/08 11:13:11;;;;;;;4.88;2.30;;;;;;;26.85;28.34;94986.50;5072901;28;20204;-64
2022/05/08 11:15:41;;;;;;;3.97;2.00;;;;;;;26.70;24.98;95053.94;5072642;28;20247;-60
2022/05/08 11:18:07;;;;;;;2.42;2.10;;;;;;;26.72;26.04;95030.25;5072097;28;20747;-67
2022/05/08 11:20:42;;;;;;;2.42;1.88;;;;;;;26.23;25.94;95021.53;5072230;28;20300;-63
2022/05/08 11:23:10;;;;;;;6.43;2.25;;;;;;;26.62;26.49;95015.88;5072509;28;20216;-65
2022/05/08 11:25:36;;;;;;;5.07;1.95;;;;;;;26.66;25.04;95033.69;5072047;28;20210;-61
2022/05/08 11:28:01;;;;;;;2.40;1.83;;;;;;;26.61;25.16;95011.69;5072268;28;20334;-60
2022/05/08 11:30:33;;;;;;;5.53;2.03;;;;;;;26.63;24.14;95053.19;5079559;22;20220;-65
2022/05/08 11:36:07;;;;;;;3.67;1.90;;;;;;;27.05;24.70;95018.34;5072317;28;20180;-65
2022/05/08 11:38:40;;;;;;;3.53;2.13;;;;;;;27.26;25.42;95006.59;5071978;28;20291;-64
2022/05/08 11:41:10;;;;;;;2.38;1.80;;;;;;;27.55;25.69;94994.53;5071831;28;20708;-62
2022/05/08 11:43:40;;;;;;;2.22;1.30;;;;;;;27.17;22.61;95041.91;5072024;28;20589;-61
2022/05/08 11:46:07;;;;;;;2.95;1.92;;;;;;;27.73;22.54;95070.22;5072190;28;20180;-61
2022/05/08 11:48:40;;;;;;;4.32;1.67;;;;;;;27.48;23.31;95038.25;5071836;28;20243;-60
2022/05/08 11:51:07;;;;;;;4.15;1.50;;;;;;;27.65;23.77;95019.09;5072010;28;20161;-66
2022/05/08 11:53:42;;;;;;;3.50;1.70;;;;;;;27.66;23.48;95035.53;5053855;28;20219;-60
2022/05/08 11:56:24;;;;;;;1.73;1.52;;;;;;;27.63;22.81;95046.47;5071661;28;20176;-63
2022/05/08 11:58:50;;;;;;;2.00;1.58;;;;;;;27.74;21.27;95066.56;5071951;28;20268;-63
2022/05/08 12:01:30;;;;;;;2.63;1.95;;;;;;;27.87;20.04;95095.94;5053675;28;20181;-63
2022/05/08 12:04:28;;;;;;;1.85;1.48;;;;;;;27.37;19.93;95099.91;5072044;28;20204;-64
2022/05/08 12:07:02;;;;;;;4.90;1.50;;;;;;;27.35;19.22;95105.34;5063986;28;20288;-64